Date,TemperatureHighF,TemperatureAvgF,TemperatureLowF,DewpointHighF,DewpointAvgF,DewpointLowF,HumidityHigh,HumidityAvg,HumidityLow,PressureMaxIn,PressureMinIn,WindSpeedMaxMPH,WindSpeedAvgMPH,GustSpeedMaxMPH,PrecipitationSumIn
2013-1-1,19.6,6.5,-10.5,0.0,0.0,0.0,0,0,100,0.00,0.00,0,0,0,0.00
2013-1-2,21.1,16.7,13.2,0.0,0.0,0.0,0,0,100,0.00,0.00,0,0,0,0.00
2013-1-3,20.8,13.3,9.9,0.0,0.0,0.0,0,0,100,0.00,0.00,0,0,0,0.00
2013-1-4,31.6,21.2,12.6,0.0,0.0,0.0,0,0,100,0.00,0.00,0,0,0,0.00
2013-1-5,26.0,16.2,6.1,0.0,0.0,0.0,0,0,100,0.00,0.00,0,0,0,0.00
2013-1-6,24.2,15.2,9.0,0.0,0.0,0.0,0,0,100,0.00,0.00,0,0,0,0.00
2013-1-7,38.0,28.9,19.9,0.0,0.0,0.0,0,0,100,0.00,0.00,0,0,0,0.00
2013-1-8,34.6,26.0,14.7,0.0,0.0,0.0,0,0,100,0.00,0.00,0,0,0,0.00
2013-1-9,35.6,29.9,23.6,0.0,0.0,0.0,0,0,100,0.00,0.00,0,0,0,0.00
2013-1-10,66.3,33.5,23.4,0.0,0.0,0.0,0,0,100,0.00,0.00,0,0,0,0.00
2013-1-11,40.0,36.8,34.5,0.0,0.0,0.0,0,0,100,0.00,0.00,0,0,0,0.00
2013-1-12,38.5,15.6,4.4,0.0,0.0,0.0,0,0,100,0.00,0.00,0,0,0,0.00
2013-1-13,10.8,4.9,1.4,0.0,0.0,0.0,0,0,100,0.00,0.00,0,0,0,0.00
2013-1-14,14.1,7.9,4.7,0.0,0.0,0.0,0,0,100,0.00,0.00,0,0,0,0.00
2013-1-15,32.1,21.4,9.8,0.0,0.0,0.0,0,0,100,0.00,0.00,0,0,0,0.00
2013-1-16,37.5,26.3,12.3,0.0,0.0,0.0,0,0,100,0.00,0.00,0,0,0,0.00
2013-1-17,12.5,7.2,3.1,0.0,0.0,0.0,0,0,100,0.00,0.00,0,0,0,0.00
2013-1-19,40.7,24.3,2.1,0.0,0.0,0.0,0,0,100,0.00,0.00,0,0,0,0.00
2013-1-20,11.0,2.5,-3.0,0.0,0.0,0.0,0,0,100,0.00,0.00,0,0,0,0.00
2013-1-21,-1.1,-6.5,-11.2,0.0,0.0,0.0,0,0,100,0.00,0.00,0,0,0,0.00
2013-1-22,69.9,-3.1,-11.0,0.0,0.0,0.0,0,0,100,0.00,0.00,0,0,0,0.00
2013-1-23,17.3,8.1,-3.9,0.0,0.0,0.0,0,0,100,0.00,0.00,0,0,0,0.00
2013-1-24,13.6,3.6,-5.7,0.0,0.0,0.0,0,0,100,0.00,0.00,0,0,0,0.00
2013-1-25,19.7,12.7,3.1,0.0,0.0,0.0,0,0,100,0.00,0.00,0,0,0,0.00
2013-1-26,26.0,13.9,-0.5,0.0,0.0,0.0,0,0,100,0.00,0.00,0,0,0,0.00
2013-1-27,32.4,29.7,23.9,0.0,0.0,0.0,0,0,100,0.00,0.00,0,0,0,0.00
2013-1-28,35.1,32.2,30.6,0.0,0.0,0.0,0,0,100,0.00,0.00,0,0,0,0.00
2013-1-29,35.6,32.3,28.0,0.0,0.0,0.0,0,0,100,0.00,0.00,0,0,0,0.00
2013-1-30,28.0,17.6,8.6,0.0,0.0,0.0,0,0,100,0.00,0.00,0,0,0,0.00
2013-1-31,8.4,0.7,-8.3,0.0,0.0,0.0,0,0,100,0.00,0.00,0,0,0,0.00
2013-2-1,7.8,-1.6,-12.0,0.0,0.0,0.0,0,0,100,0.00,0.00,0,0,0,0.00
2013-2-2,13.5,7.5,1.8,0.0,0.0,0.0,0,0,100,0.00,0.00,0,0,0,0.00
2013-2-3,15.0,10.8,4.1,0.0,0.0,0.0,0,0,100,0.00,0.00,0,0,0,0.00
2013-2-4,71.7,11.4,3.7,0.0,0.0,0.0,0,0,100,0.00,0.00,0,0,0,0.00
2013-2-5,30.4,22.5,5.9,0.0,0.0,0.0,0,0,100,0.00,0.00,0,0,0,0.00
2013-2-6,28.2,16.4,1.9,0.0,0.0,0.0,0,0,100,0.00,0.00,0,0,0,0.00
2013-2-7,26.6,25.1,19.2,0.0,0.0,0.0,0,0,100,0.00,0.00,0,0,0,0.00
2013-2-8,28.5,24.0,19.6,0.0,0.0,0.0,0,0,100,0.00,0.00,0,0,0,0.00
2013-2-9,32.8,28.7,24.9,0.0,0.0,0.0,0,0,100,0.00,0.00,0,0,0,0.00
2013-2-10,33.9,30.9,28.0,0.0,0.0,0.0,0,0,100,0.00,0.00,0,0,0,0.00
2013-2-11,30.1,24.2,16.1,0.0,0.0,0.0,0,0,100,0.00,0.00,0,0,0,0.00
2013-2-12,37.4,24.8,14.5,0.0,0.0,0.0,0,0,100,0.00,0.00,0,0,0,0.00
2013-2-13,42.1,29.1,18.5,0.0,0.0,0.0,0,0,100,0.00,0.00,0,0,0,0.00
2013-2-14,33.2,27.1,13.7,0.0,0.0,0.0,0,0,100,0.00,0.00,0,0,0,0.00
2013-2-15,20.2,9.8,3.3,0.0,0.0,0.0,0,0,100,0.00,0.00,0,0,0,0.00
2013-2-16,21.0,8.0,-1.0,0.0,0.0,0.0,0,0,100,0.00,0.00,0,0,0,0.00
2013-2-17,34.5,21.4,5.4,0.0,0.0,0.0,0,0,100,0.00,0.00,0,0,0,0.00
2013-2-18,33.7,22.8,5.9,0.0,0.0,0.0,0,0,100,0.00,0.00,0,0,0,0.00
2013-2-19,7.0,2.8,-3.7,0.0,0.0,0.0,0,0,100,0.00,0.00,0,0,0,0.00
2013-2-20,18.6,4.2,-9.4,0.0,0.0,0.0,0,0,100,0.00,0.00,0,0,0,0.00
2013-2-21,22.2,13.2,3.2,0.0,0.0,0.0,0,0,100,0.00,0.00,0,0,0,0.00
2013-2-22,30.7,23.3,18.9,0.0,0.0,0.0,0,0,100,0.00,0.00,0,0,0,0.00
2013-2-23,27.4,19.7,8.7,0.0,0.0,0.0,0,0,100,0.00,0.00,0,0,0,0.00
2013-2-24,36.5,18.8,2.0,0.0,0.0,0.0,0,0,100,0.00,0.00,0,0,0,0.00
2013-2-25,37.6,27.4,14.7,0.0,0.0,0.0,0,0,100,0.00,0.00,0,0,0,0.00
2013-2-26,38.0,28.6,12.8,0.0,0.0,0.0,0,0,100,0.00,0.00,0,0,0,0.00
2013-2-27,38.4,31.7,27.2,0.0,0.0,0.0,0,0,100,0.00,0.00,0,0,0,0.00
2013-2-28,30.0,28.0,23.7,0.0,0.0,0.0,0,0,100,0.00,0.00,0,0,0,0.00
2013-3-1,30.9,24.5,17.4,0.0,0.0,0.0,0,0,100,0.00,0.00,0,0,0,0.00
2013-3-2,30.8,17.8,5.8,0.0,0.0,0.0,0,0,100,0.00,0.00,0,0,0,0.00
2013-3-3,35.4,24.1,12.4,0.0,0.0,0.0,0,0,100,0.00,0.00,0,0,0,0.00
2013-3-4,28.2,24.7,22.0,0.0,0.0,0.0,0,0,100,0.00,0.00,0,0,0,0.00
2013-3-5,30.5,25.8,21.3,0.0,0.0,0.0,0,0,100,0.00,0.00,0,0,0,0.00
2013-3-6,32.0,22.1,9.2,0.0,0.0,0.0,0,0,100,0.00,0.00,0,0,0,0.00
2013-3-7,33.6,17.5,4.4,0.0,0.0,0.0,0,0,100,0.00,0.00,0,0,0,0.00
2013-3-8,69.9,28.0,14.2,0.0,0.0,0.0,0,0,100,0.00,0.00,0,0,0,0.00
2013-3-9,38.0,36.4,32.8,0.0,0.0,0.0,0,0,100,0.00,0.00,0,0,0,0.00
2013-3-10,37.7,34.4,29.4,0.0,0.0,0.0,0,0,100,0.00,0.00,0,0,0,0.00
2013-3-11,30.6,27.7,21.1,0.0,0.0,0.0,0,0,100,0.00,0.00,0,0,0,0.00
2013-3-12,30.2,24.3,19.0,0.0,0.0,0.0,0,0,100,0.00,0.00,0,0,0,0.00
2013-3-13,33.3,21.5,10.9,0.0,0.0,0.0,0,0,100,0.00,0.00,0,0,0,0.00
2013-3-14,41.7,30.8,23.2,0.0,0.0,0.0,0,0,100,0.00,0.00,0,0,0,0.00
2013-3-15,34.8,31.5,26.4,0.0,0.0,0.0,0,0,100,0.00,0.00,0,0,0,0.00
2013-3-16,29.1,22.3,13.3,0.0,0.0,0.0,0,0,100,0.00,0.00,0,0,0,0.00
2013-3-17,30.0,19.3,7.7,0.0,0.0,0.0,0,0,100,0.00,0.00,0,0,0,0.00
2013-3-18,30.4,21.8,11.4,0.0,0.0,0.0,0,0,100,0.00,0.00,0,0,0,0.00
2013-3-19,24.0,12.8,6.4,0.0,0.0,0.0,0,0,100,0.00,0.00,0,0,0,0.00
2013-3-20,22.2,12.1,5.2,0.0,0.0,0.0,0,0,100,0.00,0.00,0,0,0,0.00
2013-3-21,30.7,15.1,-0.1,0.0,0.0,0.0,0,0,100,0.00,0.00,0,0,0,0.00
2013-3-22,37.2,21.8,5.6,0.0,0.0,0.0,0,0,100,0.00,0.00,0,0,0,0.00
2013-3-23,66.3,28.6,14.4,0.0,0.0,0.0,0,0,100,0.00,0.00,0,0,0,0.00
2013-3-24,35.1,29.2,25.6,0.0,0.0,0.0,0,0,100,0.00,0.00,0,0,0,0.00
2013-3-25,38.8,30.0,22.5,0.0,0.0,0.0,0,0,100,0.00,0.00,0,0,0,0.00
2013-3-26,40.2,29.4,23.0,0.0,0.0,0.0,0,0,100,0.00,0.00,0,0,0,0.00
2013-3-27,44.3,30.6,17.8,0.0,0.0,0.0,0,0,100,0.00,0.00,0,0,0,0.00
2013-3-28,45.1,31.9,17.7,0.0,0.0,0.0,0,0,100,0.00,0.00,0,0,0,0.00
2013-3-29,50.4,37.6,27.7,0.0,0.0,0.0,0,0,100,0.00,0.00,0,0,0,0.00
2013-3-30,55.3,42.7,33.8,0.0,0.0,0.0,0,0,100,0.00,0.00,0,0,0,0.00
2013-3-31,40.2,33.9,23.6,0.0,0.0,0.0,0,0,100,0.00,0.00,0,0,0,0.00
2013-4-1,36.3,26.3,17.0,0.0,0.0,0.0,0,0,100,0.00,0.00,0,0,0,0.00
2013-4-2,39.4,27.2,18.8,0.0,0.0,0.0,0,0,100,0.00,0.00,0,0,0,0.00
2013-4-3,47.8,32.8,16.1,0.0,0.0,0.0,0,0,100,0.00,0.00,0,0,0,0.00
2013-4-4,50.9,42.2,33.0,0.0,0.0,0.0,0,0,100,0.00,0.00,0,0,0,0.00
2013-4-5,68.1,34.6,25.1,0.0,0.0,0.0,0,0,100,0.00,0.00,0,0,0,0.00
2013-4-6,58.1,41.9,35.4,0.0,0.0,0.0,0,0,100,0.00,0.00,0,0,0,0.00
2013-4-7,50.7,41.0,34.8,0.0,0.0,0.0,0,0,100,0.00,0.00,0,0,0,0.00
2013-4-8,48.2,43.2,39.0,0.0,0.0,0.0,0,0,100,0.00,0.00,0,0,0,0.00
2013-4-9,68.1,37.6,33.5,0.0,0.0,0.0,0,0,100,0.00,0.00,0,0,0,0.00
2013-4-10,36.5,33.6,29.0,0.0,0.0,0.0,0,0,100,0.00,0.00,0,0,0,0.00
2013-4-11,36.4,34.0,30.5,0.0,0.0,0.0,0,0,100,0.00,0.00,0,0,0,0.00
2013-4-12,35.8,31.8,27.3,0.0,0.0,0.0,0,0,100,0.00,0.00,0,0,0,0.00
2013-4-13,38.8,32.8,28.2,0.0,0.0,0.0,0,0,100,0.00,0.00,0,0,0,0.00
2013-4-14,37.6,32.6,29.5,0.0,0.0,0.0,0,0,100,0.00,0.00,0,0,0,0.00
2013-4-15,42.6,36.1,31.3,0.0,0.0,0.0,0,0,100,0.00,0.00,0,0,0,0.00
2013-4-16,47.7,37.6,32.1,0.0,0.0,0.0,0,0,100,0.00,0.00,0,0,0,0.00
2013-4-17,66.3,35.7,31.6,0.0,0.0,0.0,0,0,100,0.00,0.00,0,0,0,0.00
2013-4-18,35.4,32.8,31.7,0.0,0.0,0.0,0,0,100,0.00,0.00,0,0,0,0.00
2013-4-19,40.4,33.6,28.9,0.0,0.0,0.0,0,0,100,0.00,0.00,0,0,0,0.00
2013-4-20,42.8,33.2,18.7,0.0,0.0,0.0,0,0,100,0.00,0.00,0,0,0,0.00
2013-4-21,68.1,40.6,32.9,0.0,0.0,0.0,0,0,100,0.00,0.00,0,0,0,0.00
2013-4-22,41.6,36.1,32.1,0.0,0.0,0.0,0,0,100,0.00,0.00,0,0,0,0.00
2013-4-23,44.5,34.2,28.1,0.0,0.0,0.0,0,0,100,0.00,0.00,0,0,0,0.00
2013-4-24,49.3,36.2,25.2,0.0,0.0,0.0,0,0,100,0.00,0.00,0,0,0,0.00
2013-4-25,54.5,40.9,31.9,0.0,0.0,0.0,0,0,100,0.00,0.00,0,0,0,0.00
2013-4-26,73.7,55.5,40.4,0.0,0.0,0.0,0,0,100,0.00,0.00,0,0,0,0.00
2013-4-27,77.1,59.7,37.5,0.0,0.0,0.0,0,0,100,0.00,0.00,0,0,0,0.00
2013-4-28,83.2,63.2,50.6,0.0,0.0,0.0,0,0,100,0.00,0.00,0,0,0,0.00
2013-4-29,78.4,61.8,49.2,0.0,0.0,0.0,0,0,100,0.00,0.00,0,0,0,0.00
2013-4-30,71.1,63.1,56.9,0.0,0.0,0.0,0,0,100,0.00,0.00,0,0,0,0.00
2013-5-1,56.9,39.3,33.1,0.0,0.0,0.0,0,0,100,0.00,0.00,0,0,0,0.00
2013-5-2,47.0,38.6,32.9,0.0,0.0,0.0,0,0,100,0.00,0.00,0,0,0,0.00
2013-5-3,38.6,34.1,31.2,0.0,0.0,0.0,0,0,100,0.00,0.00,0,0,0,0.00
2013-5-4,51.3,40.9,32.8,0.0,0.0,0.0,0,0,100,0.00,0.00,0,0,0,0.00
2013-5-5,67.6,51.9,38.9,0.0,0.0,0.0,0,0,100,0.00,0.00,0,0,0,0.00
2013-5-6,78.8,59.4,42.2,0.0,0.0,0.0,0,0,100,0.00,0.00,0,0,0,0.00
2013-5-7,83.1,65.5,48.9,0.0,0.0,0.0,0,0,100,0.00,0.00,0,0,0,0.00
2013-5-8,81.0,62.9,52.0,0.0,0.0,0.0,0,0,100,0.00,0.00,0,0,0,0.00
2013-5-9,58.2,53.0,44.2,0.0,0.0,0.0,0,0,100,0.00,0.00,0,0,0,0.00
2013-5-10,70.5,52.8,38.7,0.0,0.0,0.0,0,0,100,0.00,0.00,0,0,0,0.00
2013-5-11,56.0,47.4,41.4,0.0,0.0,0.0,0,0,100,0.00,0.00,0,0,0,0.00
2013-5-12,59.8,45.4,31.9,0.0,0.0,0.0,0,0,100,0.00,0.00,0,0,0,0.00
2013-5-13,74.3,55.9,36.4,0.0,0.0,0.0,0,0,100,0.00,0.00,0,0,0,0.00
2013-5-14,99.6,75.3,50.7,0.0,0.0,0.0,0,0,100,0.00,0.00,0,0,0,0.00
2013-5-15,79.4,66.1,53.4,0.0,0.0,0.0,0,0,100,0.00,0.00,0,0,0,0.00
2013-5-16,83.5,70.6,58.3,0.0,0.0,0.0,0,0,100,0.00,0.00,0,0,0,0.00
2013-5-17,65.9,56.7,54.0,0.0,0.0,0.0,0,0,100,0.00,0.00,0,0,0,0.00
2013-5-18,82.6,65.2,55.1,0.0,0.0,0.0,0,0,100,0.00,0.00,0,0,0,0.00
2013-5-19,81.7,67.8,61.6,0.0,0.0,0.0,0,0,100,0.00,0.00,0,0,0,0.00
2013-5-20,72.8,65.0,58.0,0.0,0.0,0.0,0,0,100,0.00,0.00,0,0,0,0.00
2013-5-21,68.2,59.2,52.3,0.0,0.0,0.0,0,0,100,0.00,0.00,0,0,0,0.00
2013-5-22,52.5,49.8,47.0,0.0,0.0,0.0,0,0,100,0.00,0.00,0,0,0,0.00
2013-5-23,65.5,53.8,45.0,0.0,0.0,0.0,0,0,100,0.00,0.00,0,0,0,0.00
2013-5-24,71.6,53.5,36.2,0.0,0.0,0.0,0,0,100,0.00,0.00,0,0,0,0.00
2013-5-25,59.6,54.3,50.6,0.0,0.0,0.0,0,0,100,0.00,0.00,0,0,0,0.00
2013-5-26,57.1,53.2,49.6,0.0,0.0,0.0,0,0,100,0.00,0.00,0,0,0,0.00
2013-5-27,59.3,55.3,52.6,0.0,0.0,0.0,0,0,100,0.00,0.00,0,0,0,0.00
2013-5-28,59.8,55.3,52.4,0.0,0.0,0.0,0,0,100,0.00,0.00,0,0,0,0.00
2013-5-29,75.4,63.0,52.9,0.0,0.0,0.0,0,0,100,0.00,0.00,0,0,0,0.00
2013-5-30,78.5,68.3,62.9,0.0,0.0,0.0,0,0,100,0.00,0.00,0,0,0,0.00
2013-5-31,79.6,67.6,59.2,0.0,0.0,0.0,0,0,100,0.00,0.00,0,0,0,0.00
2013-6-1,73.1,59.8,51.5,0.0,0.0,0.0,0,0,100,0.00,0.00,0,0,0,0.00
2013-6-2,66.5,56.0,47.6,0.0,0.0,0.0,0,0,100,0.00,0.00,0,0,0,0.00
2013-6-3,70.6,58.7,42.8,0.0,0.0,0.0,0,0,100,0.00,0.00,0,0,0,0.00
2013-6-4,62.9,58.3,53.9,0.0,0.0,0.0,0,0,100,0.00,0.00,0,0,0,0.00
2013-6-5,66.5,56.4,53.7,0.0,0.0,0.0,0,0,100,0.00,0.00,0,0,0,0.00
2013-6-6,55.8,53.4,50.4,0.0,0.0,0.0,0,0,100,0.00,0.00,0,0,0,0.00
2013-6-7,64.8,58.2,52.9,0.0,0.0,0.0,0,0,100,0.00,0.00,0,0,0,0.00
2013-6-8,71.4,62.6,54.1,0.0,0.0,0.0,0,0,100,0.00,0.00,0,0,0,0.00
2013-6-9,68.9,60.2,55.6,0.0,0.0,0.0,0,0,100,0.00,0.00,0,0,0,0.00
2013-6-10,76.7,65.4,57.7,0.0,0.0,0.0,0,0,100,0.00,0.00,0,0,0,0.00
2013-6-11,78.9,67.0,54.1,0.0,0.0,0.0,0,0,100,0.00,0.00,0,0,0,0.00
2013-6-12,71.2,66.3,62.9,0.0,0.0,0.0,0,0,100,0.00,0.00,0,0,0,0.00
2013-6-13,78.3,67.4,57.3,0.0,0.0,0.0,0,0,100,0.00,0.00,0,0,0,0.00
2013-6-14,80.5,68.8,53.8,0.0,0.0,0.0,0,0,100,0.00,0.00,0,0,0,0.00
2013-6-15,75.7,67.7,60.8,0.0,0.0,0.0,0,0,100,0.00,0.00,0,0,0,0.00
2013-6-16,86.4,70.8,57.6,0.0,0.0,0.0,0,0,100,0.00,0.00,0,0,0,0.00
2013-6-17,82.4,71.3,59.5,0.0,0.0,0.0,0,0,100,0.00,0.00,0,0,0,0.00
2013-6-18,77.2,66.2,57.9,0.0,0.0,0.0,0,0,100,0.00,0.00,0,0,0,0.00
2013-6-19,86.3,70.5,56.2,0.0,0.0,0.0,0,0,100,0.00,0.00,0,0,0,0.00
2013-6-20,90.7,79.4,68.7,0.0,0.0,0.0,0,0,100,0.00,0.00,0,0,0,0.00
2013-6-21,81.6,71.8,63.0,0.0,0.0,0.0,0,0,100,0.00,0.00,0,0,0,0.00
2013-6-22,81.7,72.4,64.6,0.0,0.0,0.0,0,0,100,0.00,0.00,0,0,0,0.00
2013-6-23,84.1,74.0,65.8,0.0,0.0,0.0,0,0,100,0.00,0.00,0,0,0,0.00
2013-6-24,81.0,70.2,61.6,0.0,0.0,0.0,0,0,100,0.00,0.00,0,0,0,0.00
2013-6-25,85.6,75.1,64.1,0.0,0.0,0.0,0,0,100,0.00,0.00,0,0,0,0.00
2013-6-26,88.0,78.1,69.8,0.0,0.0,0.0,0,0,100,0.00,0.00,0,0,0,0.00
2013-6-27,86.1,76.6,66.5,0.0,0.0,0.0,0,0,100,0.00,0.00,0,0,0,0.00
2013-6-28,79.2,70.3,64.0,0.0,0.0,0.0,0,0,100,0.00,0.00,0,0,0,0.00
2013-6-29,75.3,66.4,61.2,0.0,0.0,0.0,0,0,100,0.00,0.00,0,0,0,0.00
2013-6-30,80.6,67.7,53.2,0.0,0.0,0.0,0,0,100,0.00,0.00,0,0,0,0.00
2013-7-1,83.5,70.4,56.2,0.0,0.0,0.0,0,0,100,0.00,0.00,0,0,0,0.00
2013-7-2,82.7,71.2,57.0,0.0,0.0,0.0,0,0,100,0.00,0.00,0,0,0,0.00
2013-7-3,85.1,71.3,55.0,0.0,0.0,0.0,0,0,100,0.00,0.00,0,0,0,0.00
2013-7-4,90.7,75.1,60.9,0.0,0.0,0.0,0,0,100,0.00,0.00,0,0,0,0.00
2013-7-5,88.6,77.9,67.8,0.0,0.0,0.0,0,0,100,0.00,0.00,0,0,0,0.00
2013-7-6,90.9,79.3,71.8,0.0,0.0,0.0,0,0,100,0.00,0.00,0,0,0,0.00
2013-7-7,92.4,81.4,73.8,0.0,0.0,0.0,0,0,100,0.00,0.00,0,0,0,0.00
2013-7-8,89.2,77.1,67.6,0.0,0.0,0.0,0,0,100,0.00,0.00,0,0,0,0.00
2013-7-9,85.6,77.4,68.8,0.0,0.0,0.0,0,0,100,0.00,0.00,0,0,0,0.00
2013-7-10,82.8,71.2,62.3,0.0,0.0,0.0,0,0,100,0.00,0.00,0,0,0,0.00
2013-7-11,87.0,71.7,57.6,0.0,0.0,0.0,0,0,100,0.00,0.00,0,0,0,0.00
2013-7-12,90.2,76.3,66.8,0.0,0.0,0.0,0,0,100,0.00,0.00,0,0,0,0.00
2013-7-13,77.0,71.1,63.3,0.0,0.0,0.0,0,0,100,0.00,0.00,0,0,0,0.00
2013-7-14,88.0,75.2,67.3,0.0,0.0,0.0,0,0,100,0.00,0.00,0,0,0,0.00
2013-7-15,89.3,76.2,64.5,0.0,0.0,0.0,0,0,100,0.00,0.00,0,0,0,0.00
2013-7-16,92.7,80.5,72.3,0.0,0.0,0.0,0,0,100,0.00,0.00,0,0,0,0.00
2013-7-17,94.6,83.3,73.7,0.0,0.0,0.0,0,0,100,0.00,0.00,0,0,0,0.00
2013-7-18,94.0,84.0,76.2,0.0,0.0,0.0,0,0,100,0.00,0.00,0,0,0,0.00
2013-7-19,83.3,78.2,69.6,0.0,0.0,0.0,0,0,100,0.00,0.00,0,0,0,0.00
2013-7-20,81.4,71.3,64.0,0.0,0.0,0.0,0,0,100,0.00,0.00,0,0,0,0.00
2013-7-21,82.4,69.9,58.7,0.0,0.0,0.0,0,0,100,0.00,0.00,0,0,0,0.00
2013-7-22,86.5,73.7,65.5,0.0,0.0,0.0,0,0,100,0.00,0.00,0,0,0,0.00
2013-7-23,76.3,67.1,58.6,0.0,0.0,0.0,0,0,100,0.00,0.00,0,0,0,0.00
2013-7-24,78.3,65.7,55.8,0.0,0.0,0.0,0,0,100,0.00,0.00,0,0,0,0.00
2013-7-25,82.8,71.5,60.9,0.0,0.0,0.0,0,0,100,0.00,0.00,0,0,0,0.00
2013-7-26,70.0,63.9,57.7,0.0,0.0,0.0,0,0,100,0.00,0.00,0,0,0,0.00
2013-7-27,62.5,56.5,51.8,0.0,0.0,0.0,0,0,100,0.00,0.00,0,0,0,0.00
2013-7-28,72.7,59.9,50.8,0.0,0.0,0.0,0,0,100,0.00,0.00,0,0,0,0.00
2013-7-29,78.9,62.4,49.8,0.0,0.0,0.0,0,0,100,0.00,0.00,0,0,0,0.00
2013-7-30,72.9,66.5,62.0,0.0,0.0,0.0,0,0,100,0.00,0.00,0,0,0,0.00
2013-7-31,80.2,67.9,61.3,0.0,0.0,0.0,0,0,100,0.00,0.00,0,0,0,0.00
2013-8-1,82.7,68.0,54.9,0.0,0.0,0.0,0,0,100,0.00,0.00,0,0,0,0.00
2013-8-2,76.7,67.5,56.8,0.0,0.0,0.0,0,0,100,0.00,0.00,0,0,0,0.00
2013-8-3,78.6,64.4,51.5,0.0,0.0,0.0,0,0,100,0.00,0.00,0,0,0,0.00
2013-8-4,74.1,62.9,50.2,0.0,0.0,0.0,0,0,100,0.00,0.00,0,0,0,0.00
2013-8-5,79.2,66.7,59.7,0.0,0.0,0.0,0,0,100,0.00,0.00,0,0,0,0.00
2013-8-6,85.7,69.6,56.7,0.0,0.0,0.0,0,0,100,0.00,0.00,0,0,0,0.00
2013-8-7,76.3,65.6,56.3,0.0,0.0,0.0,0,0,100,0.00,0.00,0,0,0,0.00
2013-8-8,76.4,63.4,52.8,0.0,0.0,0.0,0,0,100,0.00,0.00,0,0,0,0.00
2013-8-9,76.0,65.9,57.8,0.0,0.0,0.0,0,0,100,0.00,0.00,0,0,0,0.00
2013-8-10,77.6,65.9,59.1,0.0,0.0,0.0,0,0,100,0.00,0.00,0,0,0,0.00
2013-8-11,82.5,68.7,62.9,0.0,0.0,0.0,0,0,100,0.00,0.00,0,0,0,0.00
2013-8-12,77.9,69.4,61.3,0.0,0.0,0.0,0,0,100,0.00,0.00,0,0,0,0.00
2013-8-13,75.5,63.9,53.5,0.0,0.0,0.0,0,0,100,0.00,0.00,0,0,0,0.00
2013-8-14,78.1,65.7,50.6,0.0,0.0,0.0,0,0,100,0.00,0.00,0,0,0,0.00
2013-8-15,81.0,66.6,56.5,0.0,0.0,0.0,0,0,100,0.00,0.00,0,0,0,0.00
2013-8-16,81.8,67.7,57.3,0.0,0.0,0.0,0,0,100,0.00,0.00,0,0,0,0.00
2013-8-17,83.7,69.0,54.8,0.0,0.0,0.0,0,0,100,0.00,0.00,0,0,0,0.00
2013-8-18,84.0,70.5,61.3,0.0,0.0,0.0,0,0,100,0.00,0.00,0,0,0,0.00
2013-8-19,87.8,73.4,64.7,0.0,0.0,0.0,0,0,100,0.00,0.00,0,0,0,0.00
2013-8-20,90.3,77.5,68.8,0.0,0.0,0.0,0,0,100,0.00,0.00,0,0,0,0.00
2013-8-21,85.1,77.0,72.0,0.0,0.0,0.0,0,0,100,0.00,0.00,0,0,0,0.00
2013-8-30,72.0,71.0,70.3,0.0,0.0,0.0,0,0,100,0.00,0.00,0,0,0,0.00
2013-8-31,89.4,73.6,62.9,0.0,0.0,0.0,0,0,100,0.00,0.00,0,0,0,0.00
2013-9-1,73.3,68.5,62.5,0.0,0.0,0.0,0,0,100,0.00,0.00,0,0,0,0.00
2013-9-2,66.0,58.5,51.4,0.0,0.0,0.0,0,0,100,0.00,0.00,0,0,0,0.00
2013-9-3,78.5,59.1,46.8,0.0,0.0,0.0,0,0,100,0.00,0.00,0,0,0,0.00
2013-9-4,87.8,71.3,58.7,0.0,0.0,0.0,0,0,100,0.00,0.00,0,0,0,0.00
2013-9-5,85.6,71.2,61.5,0.0,0.0,0.0,0,0,100,0.00,0.00,0,0,0,0.00
2013-9-6,91.3,78.4,67.8,0.0,0.0,0.0,0,0,100,0.00,0.00,0,0,0,0.00
2013-9-7,91.0,78.9,70.6,0.0,0.0,0.0,0,0,100,0.00,0.00,0,0,0,0.00
2013-9-8,78.5,70.1,65.7,0.0,0.0,0.0,0,0,100,0.00,0.00,0,0,0,0.00
2013-9-9,92.8,76.8,68.1,0.0,0.0,0.0,0,0,100,0.00,0.00,0,0,0,0.00
2013-9-10,81.5,73.4,66.7,0.0,0.0,0.0,0,0,100,0.00,0.00,0,0,0,0.00
2013-9-11,83.1,71.6,61.9,0.0,0.0,0.0,0,0,100,0.00,0.00,0,0,0,0.00
2013-9-12,73.2,63.8,52.9,0.0,0.0,0.0,0,0,100,0.00,0.00,0,0,0,0.00
2013-9-13,68.0,57.4,44.9,0.0,0.0,0.0,0,0,100,0.00,0.00,0,0,0,0.00
2013-9-14,74.3,58.0,48.8,0.0,0.0,0.0,0,0,100,0.00,0.00,0,0,0,0.00
2013-9-15,64.9,57.9,51.2,0.0,0.0,0.0,0,0,100,0.00,0.00,0,0,0,0.00
2013-9-16,68.0,53.8,43.6,0.0,0.0,0.0,0,0,100,0.00,0.00,0,0,0,0.00
2013-9-17,67.9,53.9,43.8,0.0,0.0,0.0,0,0,100,0.00,0.00,0,0,0,0.00
2013-9-18,74.7,67.4,59.3,0.0,0.0,0.0,0,0,100,0.00,0.00,0,0,0,0.00
2013-9-19,76.7,71.4,64.0,0.0,0.0,0.0,0,0,100,0.00,0.00,0,0,0,0.00
2013-9-20,63.9,59.5,51.3,0.0,0.0,0.0,0,0,100,0.00,0.00,0,0,0,0.00
2013-9-21,63.2,53.9,46.3,0.0,0.0,0.0,0,0,100,0.00,0.00,0,0,0,0.00
2013-9-22,76.5,58.7,43.8,0.0,0.0,0.0,0,0,100,0.00,0.00,0,0,0,0.00
2013-9-23,75.9,62.0,49.9,0.0,0.0,0.0,0,0,100,0.00,0.00,0,0,0,0.00
2013-9-24,76.4,60.0,48.4,0.0,0.0,0.0,0,0,100,0.00,0.00,0,0,0,0.00
2013-9-25,75.9,60.2,48.0,0.0,0.0,0.0,0,0,100,0.00,0.00,0,0,0,0.00
2013-9-26,82.2,67.9,53.6,0.0,0.0,0.0,0,0,100,0.00,0.00,0,0,0,0.00
2013-9-27,84.5,71.2,63.2,0.0,0.0,0.0,0,0,100,0.00,0.00,0,0,0,0.00
2013-9-28,68.9,60.3,47.7,0.0,0.0,0.0,0,0,100,0.00,0.00,0,0,0,0.00
2013-9-29,77.3,61.3,48.2,0.0,0.0,0.0,0,0,100,0.00,0.00,0,0,0,0.00
2013-9-30,80.5,65.9,57.3,0.0,0.0,0.0,0,0,100,0.00,0.00,0,0,0,0.00
2013-10-1,68.3,66.4,63.8,0.0,0.0,0.0,0,0,100,0.00,0.00,0,0,0,0.00
2013-10-8,64.0,62.8,61.8,0.0,0.0,0.0,0,0,100,0.00,0.00,0,0,0,0.00
2013-10-9,77.7,63.4,55.5,0.0,0.0,0.0,0,0,100,0.00,0.00,0,0,0,0.00
2013-10-10,78.5,61.1,48.4,0.0,0.0,0.0,0,0,100,0.00,0.00,0,0,0,0.00
2013-10-11,74.3,64.3,53.7,0.0,0.0,0.0,0,0,100,0.00,0.00,0,0,0,0.00
2013-10-12,60.0,51.0,44.4,0.0,0.0,0.0,0,0,100,0.00,0.00,0,0,0,0.00
2013-10-13,60.3,46.4,38.0,0.0,0.0,0.0,0,0,100,0.00,0.00,0,0,0,0.00
2013-10-14,53.7,47.4,36.7,0.0,0.0,0.0,0,0,100,0.00,0.00,0,0,0,0.00
2013-10-15,53.2,49.6,46.5,0.0,0.0,0.0,0,0,100,0.00,0.00,0,0,0,0.00
2013-10-16,53.9,44.8,36.9,0.0,0.0,0.0,0,0,100,0.00,0.00,0,0,0,0.00
2013-10-17,61.6,47.2,38.7,0.0,0.0,0.0,0,0,100,0.00,0.00,0,0,0,0.00
2013-10-18,53.2,43.8,38.0,0.0,0.0,0.0,0,0,100,0.00,0.00,0,0,0,0.00
2013-10-19,47.2,39.5,32.3,0.0,0.0,0.0,0,0,100,0.00,0.00,0,0,0,0.00
2013-10-20,49.0,38.6,29.5,0.0,0.0,0.0,0,0,100,0.00,0.00,0,0,0,0.00
2013-10-21,38.2,34.4,28.1,0.0,0.0,0.0,0,0,100,0.00,0.00,0,0,0,0.00
2013-10-22,39.3,33.4,25.0,0.0,0.0,0.0,0,0,100,0.00,0.00,0,0,0,0.00
2013-10-23,38.4,34.1,31.5,0.0,0.0,0.0,0,0,100,0.00,0.00,0,0,0,0.00
2013-10-24,42.6,36.4,32.3,0.0,0.0,0.0,0,0,100,0.00,0.00,0,0,0,0.00
2013-10-25,57.1,43.6,26.1,0.0,0.0,0.0,0,0,100,0.00,0.00,0,0,0,0.00
2013-10-26,50.4,42.3,34.3,0.0,0.0,0.0,0,0,100,0.00,0.00,0,0,0,0.00
2013-10-27,60.2,42.8,31.6,0.0,0.0,0.0,0,0,100,0.00,0.00,0,0,0,0.00
2013-10-28,44.5,36.9,32.1,0.0,0.0,0.0,0,0,100,0.00,0.00,0,0,0,0.00
2013-10-29,41.7,36.4,32.1,0.0,0.0,0.0,0,0,100,0.00,0.00,0,0,0,0.00
2013-10-30,49.8,45.0,39.4,0.0,0.0,0.0,0,0,100,0.00,0.00,0,0,0,0.00
2013-10-31,50.4,42.7,39.6,0.0,0.0,0.0,0,0,100,0.00,0.00,0,0,0,0.00
2013-11-1,52.3,42.9,36.1,0.0,0.0,0.0,0,0,100,0.00,0.00,0,0,0,0.00
2013-11-2,51.1,40.4,33.8,0.0,0.0,0.0,0,0,100,0.00,0.00,0,0,0,0.00
2013-11-5,44.5,36.9,27.7,0.0,0.0,0.0,0,0,100,0.00,0.00,0,0,0,0.00
2013-11-6,40.6,33.2,29.0,0.0,0.0,0.0,0,0,100,0.00,0.00,0,0,0,0.00
2013-11-7,34.6,30.3,26.0,0.0,0.0,0.0,0,0,100,0.00,0.00,0,0,0,0.00
2013-11-8,45.8,35.5,23.0,0.0,0.0,0.0,0,0,100,0.00,0.00,0,0,0,0.00
2013-11-9,45.5,40.7,34.3,0.0,0.0,0.0,0,0,100,0.00,0.00,0,0,0,0.00
2013-11-10,42.7,37.7,32.0,0.0,0.0,0.0,0,0,100,0.00,0.00,0,0,0,0.00
2013-11-11,37.9,24.8,15.2,0.0,0.0,0.0,0,0,100,0.00,0.00,0,0,0,0.00
2013-11-12,29.8,18.9,10.3,0.0,0.0,0.0,0,0,100,0.00,0.00,0,0,0,0.00
2013-11-13,50.4,36.9,22.9,0.0,0.0,0.0,0,0,100,0.00,0.00,0,0,0,0.00
2013-11-14,52.0,39.6,33.3,0.0,0.0,0.0,0,0,100,0.00,0.00,0,0,0,0.00
2013-11-15,37.4,33.2,30.1,0.0,0.0,0.0,0,0,100,0.00,0.00,0,0,0,0.00
2013-11-16,51.8,46.8,43.2,0.0,0.0,0.0,0,0,100,0.00,0.00,0,0,0,0.00
2013-11-17,43.4,39.4,31.6,0.0,0.0,0.0,0,0,100,0.00,0.00,0,0,0,0.00
2013-11-18,35.9,28.9,20.6,0.0,0.0,0.0,0,0,100,0.00,0.00,0,0,0,0.00
2013-11-19,48.0,34.3,20.0,0.0,0.0,0.0,0,0,100,0.00,0.00,0,0,0,0.00
2013-11-20,43.7,40.6,36.8,0.0,0.0,0.0,0,0,100,0.00,0.00,0,0,0,0.00
2013-11-21,37.6,32.3,23.6,0.0,0.0,0.0,0,0,100,0.00,0.00,0,0,0,0.00
2013-11-22,27.0,21.1,12.7,0.0,0.0,0.0,0,0,100,0.00,0.00,0,0,0,0.00
2013-11-23,18.0,10.7,6.0,0.0,0.0,0.0,0,0,100,0.00,0.00,0,0,0,0.00
2013-11-24,31.4,18.5,4.6,0.0,0.0,0.0,0,0,100,0.00,0.00,0,0,0,0.00
2013-11-25,39.4,33.2,26.5,0.0,0.0,0.0,0,0,100,0.00,0.00,0,0,0,0.00
2013-11-26,30.2,20.7,13.4,0.0,0.0,0.0,0,0,100,0.00,0.00,0,0,0,0.00
2013-11-27,26.1,17.7,6.8,0.0,0.0,0.0,0,0,100,0.00,0.00,0,0,0,0.00
2013-11-28,29.1,20.8,10.5,0.0,0.0,0.0,0,0,100,0.00,0.00,0,0,0,0.00
2013-11-29,34.6,22.4,8.7,0.0,0.0,0.0,0,0,100,0.00,0.00,0,0,0,0.00
2013-12-1,35.4,26.7,17.8,0.0,0.0,0.0,0,0,100,0.00,0.00,0,0,0,0.00
2013-12-2,38.4,32.4,25.5,0.0,0.0,0.0,0,0,100,0.00,0.00,0,0,0,0.00
2013-12-3,35.6,34.5,33.6,0.0,0.0,0.0,0,0,100,0.00,0.00,0,0,0,0.00
2013-12-4,33.6,28.9,11.6,0.0,0.0,0.0,0,0,100,0.00,0.00,0,0,0,0.00
2013-12-5,11.4,5.0,-0.4,0.0,0.0,0.0,0,0,100,0.00,0.00,0,0,0,0.00
2013-12-6,-0.3,-4.2,-7.5,0.0,0.0,0.0,0,0,100,0.00,0.00,0,0,0,0.00
2013-12-7,2.8,-4.5,-11.6,0.0,0.0,0.0,0,0,100,0.00,0.00,0,0,0,0.00
2013-12-8,14.5,8.8,-0.7,0.0,0.0,0.0,0,0,100,0.00,0.00,0,0,0,0.00
2013-12-9,11.2,0.6,-4.3,0.0,0.0,0.0,0,0,100,0.00,0.00,0,0,0,0.00
2013-12-10,15.2,8.5,3.0,0.0,0.0,0.0,0,0,100,0.00,0.00,0,0,0,0.00
2013-12-11,7.2,-2.5,-8.5,0.0,0.0,0.0,0,0,100,0.00,0.00,0,0,0,0.00
2013-12-12,20.7,13.2,1.8,0.0,0.0,0.0,0,0,100,0.00,0.00,0,0,0,0.00
2013-12-13,17.5,14.0,10.9,0.0,0.0,0.0,0,0,100,0.00,0.00,0,0,0,0.00
2013-12-14,16.4,9.1,-0.4,0.0,0.0,0.0,0,0,100,0.00,0.00,0,0,0,0.00
2013-12-15,7.6,1.8,-1.4,0.0,0.0,0.0,0,0,100,0.00,0.00,0,0,0,0.00
2013-12-16,6.1,3.4,1.3,0.0,0.0,0.0,0,0,100,0.00,0.00,0,0,0,0.00
2013-12-19,18.5,17.5,17.0,0.0,0.0,0.0,0,0,100,0.00,0.00,0,0,0,0.00
2013-12-20,20.5,17.9,16.3,0.0,0.0,0.0,0,0,100,0.00,0.00,0,0,0,0.00
2013-12-21,23.7,19.0,15.5,0.0,0.0,0.0,0,0,100,0.00,0.00,0,0,0,0.00
2013-12-22,19.6,11.7,-0.6,0.0,0.0,0.0,0,0,100,0.00,0.00,0,0,0,0.00
2013-12-23,2.2,-3.0,-8.3,0.0,0.0,0.0,0,0,100,0.00,0.00,0,0,0,0.00
2013-12-24,12.0,-1.5,-14.2,0.0,0.0,0.0,0,0,100,0.00,0.00,0,0,0,0.00
2013-12-25,29.3,17.0,10.4,0.0,0.0,0.0,0,0,100,0.00,0.00,0,0,0,0.00
2013-12-26,26.9,19.3,7.5,0.0,0.0,0.0,0,0,100,0.00,0.00,0,0,0,0.00
2013-12-27,39.7,33.5,12.7,0.0,0.0,0.0,0,0,100,0.00,0.00,0,0,0,0.00
2013-12-28,49.7,32.3,20.9,0.0,0.0,0.0,0,0,100,0.00,0.00,0,0,0,0.00
2013-12-29,20.6,-0.2,-12.9,0.0,0.0,0.0,0,0,100,0.00,0.00,0,0,0,0.00
2013-12-30,3.7,-4.6,-14.5,0.0,0.0,0.0,0,0,100,0.00,0.00,0,0,0,0.00
2013-12-31,2.4,-5.2,-10.5,0.0,0.0,0.0,0,0,100,0.00,0.00,0,0,0,0.00
2014-1-1,4.7,-1.7,-7.6,0.0,0.0,0.0,0,0,100,0.00,0.00,0,0,0,0.00
2014-1-2,6.7,-3.2,-12.3,0.0,0.0,0.0,0,0,100,0.00,0.00,0,0,0,0.00